createdAt,value
2018-11-29T00:03:31.941Z,101072.89
2018-11-29T00:08:35.684Z,101067.51
2018-11-29T00:13:39.111Z,101059.53
2018-11-29T00:18:42.642Z,101066.64
2018-11-29T00:23:46.205Z,101059.91
2018-11-29T00:28:49.701Z,101045.30
2018-11-29T00:33:55.605Z,101044.81
2018-11-29T00:38:59.023Z,101036.03
2018-11-29T00:44:02.453Z,101019.20
2018-11-29T00:49:05.867Z,101031.57
2018-11-29T00:54:09.335Z,101038.45
2018-11-29T00:59:12.803Z,101045.37
2018-11-29T01:04:16.288Z,101052.44
2018-11-29T01:09:19.671Z,101045.57
2018-11-29T01:14:23.066Z,101045.24
2018-11-29T01:19:26.515Z,101042.27
2018-11-29T01:24:29.939Z,101035.78
2018-11-29T01:29:33.310Z,101022.48
2018-11-29T01:34:36.828Z,101007.00
2018-11-29T01:39:40.271Z,101006.67
2018-11-29T01:44:43.640Z,100998.41
2018-11-29T01:49:47.037Z,101010.57
2018-11-29T01:54:50.563Z,101022.86
2018-11-29T01:59:54.028Z,101025.22
2018-11-29T02:04:57.543Z,101024.05
2018-11-29T02:10:06.231Z,101021.91
2018-11-29T02:15:09.586Z,100997.02
2018-11-29T02:20:17.816Z,100989.58
2018-11-29T02:25:21.216Z,100969.08
2018-11-29T02:30:24.657Z,100961.55
2018-11-29T02:35:28.026Z,100949.55
2018-11-29T02:40:31.476Z,100940.32
2018-11-29T02:45:35.020Z,100931.06
2018-11-29T02:50:38.451Z,100930.11
2018-11-29T02:55:41.885Z,100927.66
2018-11-29T03:00:45.275Z,100929.58
2018-11-29T03:05:48.731Z,100926.98
2018-11-29T03:10:52.087Z,100941.38
2018-11-29T03:15:55.596Z,100942.63
2018-11-29T03:20:59.101Z,100949.44
2018-11-29T03:26:02.549Z,100958.43
2018-11-29T03:31:06.028Z,100955.92
2018-11-29T03:36:09.462Z,100955.05
2018-11-29T03:41:12.869Z,100959.23
2018-11-29T03:46:16.263Z,100968.17
2018-11-29T03:51:19.708Z,100959.33
2018-11-29T03:56:23.101Z,100954.97
2018-11-29T04:01:26.525Z,100943.83
2018-11-29T04:06:30.018Z,100927.31
2018-11-29T04:11:33.424Z,100919.44
2018-11-29T04:16:36.835Z,100931.53
2018-11-29T04:21:40.183Z,100948.58
2018-11-29T04:26:43.546Z,100931.59
2018-11-29T04:31:46.959Z,100932.72
2018-11-29T04:36:50.350Z,100922.66
2018-11-29T04:41:53.844Z,100920.63
2018-11-29T04:46:57.345Z,100907.20
2018-11-29T04:52:00.963Z,100896.84
2018-11-29T04:57:04.704Z,100902.69
2018-11-29T05:02:08.311Z,100914.23
2018-11-29T05:07:11.852Z,100907.19
2018-11-29T05:12:15.497Z,100899.22
2018-11-29T05:17:19.032Z,100892.20
2018-11-29T05:22:22.643Z,100885.55
2018-11-29T05:27:26.252Z,100879.31
2018-11-29T05:32:29.780Z,100866.92
2018-11-29T05:37:33.420Z,100874.13
2018-11-29T05:42:37.034Z,100878.63
2018-11-29T05:47:40.743Z,100892.11
2018-11-29T05:52:44.099Z,100886.35
2018-11-29T05:57:47.785Z,100885.09
2018-11-29T06:02:54.155Z,100894.11
2018-11-29T06:08:04.401Z,100885.19
2018-11-29T06:13:07.953Z,100867.34
2018-11-29T06:18:11.563Z,100861.55
2018-11-29T06:23:15.150Z,100856.18
2018-11-29T06:28:18.829Z,100864.72
2018-11-29T06:33:22.480Z,100860.39
2018-11-29T06:38:26.209Z,100857.79
2018-11-29T06:43:29.982Z,100869.88
2018-11-29T06:48:33.694Z,100873.00
2018-11-29T06:53:42.690Z,100871.75
2018-11-29T06:58:46.592Z,100864.74
2018-11-29T07:03:50.390Z,100876.34
2018-11-29T07:08:57.072Z,100869.27
2018-11-29T07:14:01.002Z,100874.73
2018-11-29T07:19:04.854Z,100870.70
2018-11-29T07:24:08.286Z,100865.95
2018-11-29T07:29:16.734Z,100863.44
2018-11-29T07:34:15.145Z,100859.03
2018-11-29T07:39:18.596Z,100854.13
2018-11-29T07:44:21.947Z,100855.39
2018-11-29T07:49:25.319Z,100854.52
2018-11-29T07:54:28.667Z,100860.17
2018-11-29T07:59:32.028Z,100851.98
2018-11-29T08:04:35.394Z,100860.83
2018-11-29T08:09:38.752Z,100840.55
2018-11-29T08:14:42.126Z,100833.43
2018-11-29T08:19:45.510Z,100817.57
2018-11-29T08:24:48.863Z,100805.06
2018-11-29T08:29:52.223Z,100791.91
2018-11-29T08:34:55.596Z,100783.02
2018-11-29T08:39:58.959Z,100793.42
2018-11-29T08:45:02.338Z,100792.37
2018-11-29T08:50:09.677Z,100797.55
2018-11-29T08:55:16.396Z,100804.19
2018-11-29T09:00:20.767Z,100807.02
2018-11-29T09:05:24.212Z,100803.10
2018-11-29T09:10:31.514Z,100795.53
2018-11-29T09:15:32.099Z,100782.64
2018-11-29T09:20:35.584Z,100770.03
2018-11-29T09:25:38.898Z,100774.20
2018-11-29T09:30:42.274Z,100763.17
2018-11-29T09:35:45.719Z,100762.20
2018-11-29T09:40:49.078Z,100757.84
2018-11-29T09:45:52.501Z,100757.16
2018-11-29T09:50:55.865Z,100750.53
2018-11-29T09:55:59.326Z,100743.97
2018-11-29T10:01:02.774Z,100739.17
2018-11-29T10:06:06.533Z,100733.47
2018-11-29T10:11:10.044Z,100710.47
2018-11-29T10:16:13.423Z,100705.08
2018-11-29T10:21:16.762Z,100707.11
2018-11-29T10:26:20.138Z,100704.98
2018-11-29T10:31:23.459Z,100710.47
2018-11-29T10:36:26.795Z,100694.39
2018-11-29T10:41:30.344Z,100689.22
2018-11-29T10:46:40.246Z,100686.99
2018-11-29T10:51:43.574Z,100680.73
2018-11-29T10:56:46.921Z,100675.70
2018-11-29T11:01:55.709Z,100668.62
2018-11-29T11:06:59.099Z,100667.07
2018-11-29T11:12:04.001Z,100649.56
2018-11-29T11:17:07.797Z,100641.20
2018-11-29T11:22:14.385Z,100631.28
2018-11-29T11:27:19.675Z,100621.67
2018-11-29T11:32:23.424Z,100609.92
2018-11-29T11:37:27.233Z,100598.94
2018-11-29T11:42:31.542Z,100590.95
2018-11-29T11:47:35.248Z,100578.91
2018-11-29T11:52:38.884Z,100574.80
2018-11-29T11:57:43.766Z,100557.84
2018-11-29T12:02:48.353Z,100554.18
2018-11-29T12:07:52.119Z,100555.23
2018-11-29T12:12:56.251Z,100546.84
2018-11-29T12:17:59.704Z,100547.85
2018-11-29T12:23:03.236Z,100555.11
2018-11-29T12:28:06.873Z,100551.75
2018-11-29T12:33:10.429Z,100546.91
2018-11-29T12:38:13.825Z,100541.22
2018-11-29T12:43:17.334Z,100548.56
2018-11-29T12:48:20.780Z,100542.83
2018-11-29T12:53:24.255Z,100551.52
2018-11-29T12:58:27.706Z,100561.33
2018-11-29T13:03:31.327Z,100561.63
2018-11-29T13:08:34.740Z,100549.34
2018-11-29T13:13:38.153Z,100527.56
2018-11-29T13:18:41.578Z,100515.80
2018-11-29T13:23:45.099Z,100514.22
2018-11-29T13:28:48.612Z,100499.80
2018-11-29T13:33:52.012Z,100513.05
2018-11-29T13:38:55.669Z,100510.98
2018-11-29T13:43:59.150Z,100502.03
2018-11-29T13:49:02.675Z,100481.33
2018-11-29T13:54:06.580Z,100481.25
2018-11-29T13:59:10.157Z,100473.95
2018-11-29T14:04:13.563Z,100473.73
2018-11-29T14:09:17.020Z,100475.94
2018-11-29T14:14:20.408Z,100473.73
2018-11-29T14:19:23.887Z,100467.70
2018-11-29T14:24:27.402Z,100458.06
2018-11-29T14:29:30.784Z,100463.77
2018-11-29T14:34:34.234Z,100472.56
2018-11-29T14:39:37.685Z,100474.82
2018-11-29T14:44:41.063Z,100472.62
2018-11-29T14:49:44.408Z,100475.19
2018-11-29T14:54:47.976Z,100474.45
2018-11-29T14:59:51.557Z,100462.25
2018-11-29T15:04:56.480Z,100474.89
2018-11-29T15:10:06.361Z,100466.02
2018-11-29T15:15:10.923Z,100469.43
2018-11-29T15:20:31.480Z,100467.16
2018-11-29T15:25:34.870Z,100478.36
2018-11-29T15:30:38.332Z,100467.37
2018-11-29T15:35:41.896Z,100457.53
2018-11-29T15:40:45.263Z,100446.81
2018-11-29T15:45:48.731Z,100441.07
2018-11-29T15:50:52.210Z,100445.80
2018-11-29T15:55:55.583Z,100438.13
2018-11-29T16:00:58.899Z,100438.33
2018-11-29T16:06:02.232Z,100431.87
2018-11-29T16:11:06.084Z,100441.97
2018-11-29T16:16:09.461Z,100441.53
2018-11-29T16:21:12.856Z,100439.47
2018-11-29T16:26:16.215Z,100424.91
2018-11-29T16:31:19.538Z,100429.14
2018-11-29T16:36:26.723Z,100431.77
2018-11-29T16:41:30.518Z,100435.80
2018-11-29T16:46:34.211Z,100430.73
2018-11-29T16:51:37.819Z,100428.64
2018-11-29T16:56:41.155Z,100417.73
2018-11-29T17:01:44.468Z,100413.15
2018-11-29T17:06:47.883Z,100403.12
2018-11-29T17:11:51.448Z,100397.97
2018-11-29T17:16:54.799Z,100389.52
2018-11-29T17:21:58.224Z,100395.02
2018-11-29T17:27:01.802Z,100396.06
2018-11-29T17:32:05.720Z,100386.73
2018-11-29T17:37:14.028Z,100381.73
2018-11-29T17:47:27.589Z,100383.88
2018-11-29T17:52:32.362Z,100380.32
2018-11-29T17:57:38.215Z,100384.97
2018-11-29T18:02:47.370Z,100375.25
2018-11-29T18:07:54.068Z,100372.63
2018-11-29T18:13:01.258Z,100367.59
2018-11-29T18:18:04.635Z,100353.83
2018-11-29T18:23:08.924Z,100358.08
2018-11-29T18:28:12.934Z,100351.12
2018-11-29T18:33:16.280Z,100357.29
2018-11-29T18:38:19.678Z,100366.53
2018-11-29T18:43:23.877Z,100353.38
2018-11-29T18:48:27.210Z,100354.47
2018-11-29T18:53:30.910Z,100348.67
2018-11-29T18:58:34.326Z,100347.50
2018-11-29T19:03:37.850Z,100353.27
2018-11-29T19:08:41.219Z,100346.35
2018-11-29T19:13:44.564Z,100343.46
2018-11-29T19:18:47.990Z,100335.37
2018-11-29T19:23:51.353Z,100330.41
2018-11-29T19:28:54.695Z,100333.52
2018-11-29T19:33:58.121Z,100330.99
2018-11-29T19:39:01.515Z,100320.21
2018-11-29T19:44:04.929Z,100317.79
2018-11-29T19:49:08.383Z,100313.70
2018-11-29T19:54:11.836Z,100298.45
2018-11-29T19:59:15.127Z,100295.76
2018-11-29T20:04:18.470Z,100288.97
2018-11-29T20:09:21.786Z,100282.47
2018-11-29T20:14:26.054Z,100281.07
2018-11-29T20:25:16.178Z,100269.95
2018-11-29T20:30:20.419Z,100267.87
2018-11-29T20:35:23.810Z,100262.11
2018-11-29T20:40:28.503Z,100247.55
2018-11-29T20:45:45.931Z,100240.81
2018-11-29T20:50:50.399Z,100234.52
2018-11-29T20:55:54.021Z,100219.91
2018-11-29T21:00:57.782Z,100219.95
2018-11-29T21:06:01.402Z,100209.69
2018-11-29T21:11:05.050Z,100196.88
2018-11-29T21:16:08.713Z,100192.73
2018-11-29T21:21:12.299Z,100191.20
2018-11-29T21:26:15.916Z,100191.05
2018-11-29T21:31:21.277Z,100180.07
2018-11-29T21:36:25.195Z,100170.93
2018-11-29T21:41:28.754Z,100165.86
2018-11-29T21:46:32.269Z,100173.63
2018-11-29T21:51:35.910Z,100193.05
2018-11-29T21:56:40.765Z,100211.89
2018-11-29T22:01:44.721Z,100230.31
2018-11-29T22:06:48.319Z,100229.09
2018-11-29T22:11:51.979Z,100214.33
2018-11-29T22:16:55.625Z,100194.14
2018-11-29T22:21:59.302Z,100243.17
2018-11-29T22:27:02.899Z,100251.74
2018-11-29T22:32:07.024Z,100259.19
2018-11-29T22:37:10.587Z,100280.13
2018-11-29T22:42:14.312Z,100237.30
2018-11-29T22:47:17.807Z,100254.92
2018-11-29T22:52:21.291Z,100214.84
2018-11-29T22:57:27.639Z,100207.06
2018-11-29T23:02:31.224Z,100217.59
2018-11-29T23:07:34.609Z,100201.67
2018-11-29T23:12:38.142Z,100223.95
2018-11-29T23:17:41.657Z,100218.31
2018-11-29T23:22:45.154Z,100210.87
2018-11-29T23:27:48.713Z,100230.14
2018-11-29T23:32:52.315Z,100217.17
2018-11-29T23:37:55.935Z,100184.29
2018-11-29T23:42:59.543Z,100201.39
2018-11-29T23:48:03.127Z,100187.73
2018-11-29T23:53:06.747Z,100202.36
2018-11-29T23:58:16.572Z,100218.89
